Time;durP1;ratioP1;P1;durP2;ratioP2;P2;SDS_P1;SDS_P2;PMS_P1;PMS_P2;Temp;Humidity;BMP_temperature;BMP_pressure;BME280_temperature;BME280_humidity;BME280_pressure;Samples;Min_cycle;Max_cycle;Signal;HPM_P1;HPM_P2
2022/10/20 00:01:11;;;;;;;39.55;27.27;;;;;;;;;;5070761;28;20047;-73
2022/10/20 00:04:15;;;;;;;40.13;26.60;;;;;;;;;;5070928;28;20114;-73
2022/10/20 00:07:20;;;;;;;37.97;26.70;;;;;;;;;;5070916;28;20059;-73
2022/10/20 00:10:24;;;;;;;40.05;25.33;;;;;;;;;;5071191;28;20040;-73
2022/10/20 00:13:29;;;;;;;36.20;23.63;;;;;;;;;;5071005;28;20051;-73
2022/10/20 00:16:35;;;;;;;35.60;24.02;;;;;;;;;;5071326;28;20039;-73
2022/10/20 00:19:39;;;;;;;34.78;22.92;;;;;;;;;;5070989;28;20036;-73
2022/10/20 00:22:43;;;;;;;38.22;23.75;;;;;;;;;;5071125;28;20396;-73
2022/10/20 00:25:48;;;;;;;37.30;23.25;;;;;;;;;;5071117;28;20044;-73
2022/10/20 00:28:52;;;;;;;35.25;22.60;;;;;;;;;;5070821;28;20349;-73
2022/10/20 00:31:56;;;;;;;34.22;22.67;;;;;;;;;;5070824;28;20043;-73
2022/10/20 00:35:01;;;;;;;34.08;22.48;;;;;;;;;;5070082;28;20538;-73
2022/10/20 00:38:05;;;;;;;30.65;20.52;;;;;;;;;;5071064;28;20051;-73
2022/10/20 00:41:12;;;;;;;30.10;19.63;;;;;;;;;;5070612;28;20039;-73
2022/10/20 00:44:35;;;;;;;28.30;18.52;;;;;;;;;;5070621;28;20044;-73
2022/10/20 00:48:00;;;;;;;30.55;19.58;;;;;;;;;;5070736;28;20051;-73
2022/10/20 00:51:05;;;;;;;33.00;18.63;;;;;;;;;;5070772;28;20039;-73
2022/10/20 00:54:11;;;;;;;25.30;18.75;;;;;;;;;;5070614;28;20039;-73
2022/10/20 00:57:16;;;;;;;29.10;17.95;;;;;;;;;;5070558;28;20404;-73
2022/10/20 01:00:20;;;;;;;23.70;16.85;;;;;;;;;;5070896;28;20048;-73
2022/10/20 01:03:31;;;;;;;25.95;18.00;;;;;;;;;;5070771;28;20043;-73
2022/10/20 01:06:36;;;;;;;31.65;17.50;;;;;;;;;;5070283;28;20044;-73
2022/10/20 01:09:40;;;;;;;27.10;18.02;;;;;;;;;;5070567;28;20503;-73
2022/10/20 01:12:47;;;;;;;32.45;18.23;;;;;;;;;;5072649;28;20043;-73
2022/10/20 01:15:51;;;;;;;27.58;18.55;;;;;;;;;;5074926;28;20119;-73
2022/10/20 01:19:09;;;;;;;31.70;19.80;;;;;;;;;;5074110;28;20063;-73
2022/10/20 01:22:13;;;;;;;25.80;17.88;;;;;;;;;;5073525;28;20055;-73
2022/10/20 01:25:27;;;;;;;30.52;19.08;;;;;;;;;;5074017;28;20046;-73
2022/10/20 01:28:38;;;;;;;27.52;19.13;;;;;;;;;;5073399;28;20550;-73
2022/10/20 01:31:54;;;;;;;26.70;19.10;;;;;;;;;;5073782;28;20404;-73
2022/10/20 01:35:05;;;;;;;29.85;17.80;;;;;;;;;;5074123;28;20182;-73
2022/10/20 01:38:09;;;;;;;31.23;18.13;;;;;;;;;;5074941;28;20396;-73
2022/10/20 01:41:18;;;;;;;25.48;17.85;;;;;;;;;;5074135;28;20047;-73
2022/10/20 01:44:24;;;;;;;25.88;17.25;;;;;;;;;;5073516;28;20403;-73
2022/10/20 01:47:29;;;;;;;25.33;17.45;;;;;;;;;;5073709;28;20071;-73
2022/10/20 01:50:35;;;;;;;28.35;17.45;;;;;;;;;;5073694;28;20044;-73
2022/10/20 01:53:39;;;;;;;28.08;16.55;;;;;;;;;;5073873;28;20047;-73
2022/10/20 01:56:49;;;;;;;27.77;17.10;;;;;;;;;;5073478;28;20502;-73
2022/10/20 02:00:04;;;;;;;25.95;16.33;;;;;;;;;;5073800;28;20055;-73
2022/10/20 02:03:17;;;;;;;20.63;14.73;;;;;;;;;;5073315;28;20031;-73
2022/10/20 02:06:41;;;;;;;24.35;15.27;;;;;;;;;;5072461;28;20047;-73
2022/10/20 02:09:48;;;;;;;22.40;14.45;;;;;;;;;;5073287;28;20391;-73
2022/10/20 02:12:54;;;;;;;21.85;12.95;;;;;;;;;;5073241;28;20063;-73
2022/10/20 02:16:00;;;;;;;22.92;12.95;;;;;;;;;;5073009;28;20044;-73
2022/10/20 02:19:08;;;;;;;21.65;12.52;;;;;;;;;;5073124;28;20043;-73
2022/10/20 02:22:13;;;;;;;18.00;11.45;;;;;;;;;;5072877;28;20043;-73
2022/10/20 02:25:19;;;;;;;19.20;12.68;;;;;;;;;;5072468;28;20521;-73
2022/10/20 02:28:25;;;;;;;18.73;12.43;;;;;;;;;;5072683;28;20075;-73
2022/10/20 02:31:29;;;;;;;21.88;11.95;;;;;;;;;;5072565;28;20521;-73
2022/10/20 02:34:33;;;;;;;21.58;11.95;;;;;;;;;;5072738;28;20039;-73
2022/10/20 02:37:38;;;;;;;17.88;11.30;;;;;;;;;;5073165;28;20040;-73
2022/10/20 02:40:42;;;;;;;21.55;12.20;;;;;;;;;;5072962;28;20044;-73
2022/10/20 02:43:46;;;;;;;22.85;12.02;;;;;;;;;;5072384;28;20048;-73
2022/10/20 02:46:51;;;;;;;25.92;11.60;;;;;;;;;;5072404;28;20056;-73
2022/10/20 02:49:55;;;;;;;20.58;11.50;;;;;;;;;;5072581;28;20048;-73
2022/10/20 02:52:59;;;;;;;18.98;12.15;;;;;;;;;;5072306;28;20523;-73
2022/10/20 02:56:04;;;;;;;18.27;11.98;;;;;;;;;;5072474;28;20047;-73
2022/10/20 02:59:12;;;;;;;16.70;12.38;;;;;;;;;;5071630;28;20055;-73
2022/10/20 03:02:16;;;;;;;17.77;12.98;;;;;;;;;;5071930;28;20039;-73
2022/10/20 03:05:21;;;;;;;19.25;12.50;;;;;;;;;;5071906;28;20055;-73
2022/10/20 03:08:25;;;;;;;18.13;11.95;;;;;;;;;;5071720;28;20404;-73
2022/10/20 03:11:29;;;;;;;21.30;12.32;;;;;;;;;;5071845;28;20052;-73
2022/10/20 03:14:34;;;;;;;24.85;12.70;;;;;;;;;;5071910;28;20051;-73
2022/10/20 03:17:38;;;;;;;18.92;12.15;;;;;;;;;;5072070;28;20363;-73
2022/10/20 03:20:43;;;;;;;19.55;12.82;;;;;;;;;;5071231;28;20045;-73
2022/10/20 03:23:47;;;;;;;24.70;12.95;;;;;;;;;;5071566;28;20511;-73
2022/10/20 03:26:51;;;;;;;18.63;12.68;;;;;;;;;;5071603;28;20048;-73
2022/10/20 03:29:56;;;;;;;25.92;13.05;;;;;;;;;;5071634;28;20048;-73
2022/10/20 03:33:00;;;;;;;23.02;12.70;;;;;;;;;;5071937;28;20047;-73
2022/10/20 03:36:05;;;;;;;18.77;11.95;;;;;;;;;;5076232;28;20392;-73
2022/10/20 03:39:09;;;;;;;13.73;10.68;;;;;;;;;;5076386;28;20499;-73
2022/10/20 03:42:13;;;;;;;23.52;11.82;;;;;;;;;;5074992;28;20043;-72
2022/10/20 03:45:18;;;;;;;20.02;11.57;;;;;;;;;;5075530;28;20043;-72
2022/10/20 03:48:22;;;;;;;16.10;10.90;;;;;;;;;;5071788;28;20067;-73
2022/10/20 03:51:27;;;;;;;16.33;11.38;;;;;;;;;;5071400;28;20043;-73
2022/10/20 03:54:31;;;;;;;18.98;12.45;;;;;;;;;;5071136;28;20039;-73
2022/10/20 03:57:35;;;;;;;21.92;11.75;;;;;;;;;;5071790;28;20483;-73
2022/10/20 04:00:39;;;;;;;18.98;11.07;;;;;;;;;;5071481;28;20047;-72
2022/10/20 04:03:44;;;;;;;15.00;10.70;;;;;;;;;;5070989;28;20507;-73
2022/10/20 04:06:48;;;;;;;17.95;11.20;;;;;;;;;;5071036;28;20047;-73
2022/10/20 04:09:53;;;;;;;16.98;10.82;;;;;;;;;;5070973;28;20413;-73
2022/10/20 04:12:58;;;;;;;22.85;11.40;;;;;;;;;;5070927;28;20040;-73
2022/10/20 04:16:02;;;;;;;18.48;12.90;;;;;;;;;;5070291;28;20039;-73
2022/10/20 04:19:06;;;;;;;26.88;12.73;;;;;;;;;;5070878;28;20040;-73
2022/10/20 04:22:11;;;;;;;25.88;13.32;;;;;;;;;;5070994;28;20040;-73
2022/10/20 04:25:15;;;;;;;22.77;12.75;;;;;;;;;;5070972;28;20047;-73
2022/10/20 04:28:20;;;;;;;21.33;12.38;;;;;;;;;;5069969;28;20055;-73
2022/10/20 04:31:24;;;;;;;20.27;14.13;;;;;;;;;;5069882;28;20138;-73
2022/10/20 04:34:28;;;;;;;21.48;14.80;;;;;;;;;;5070951;28;20051;-73
2022/10/20 04:37:32;;;;;;;22.55;12.77;;;;;;;;;;5070777;28;20039;-73
2022/10/20 04:40:37;;;;;;;21.02;12.27;;;;;;;;;;5070704;28;20496;-73
2022/10/20 04:43:41;;;;;;;22.38;13.25;;;;;;;;;;5070877;28;20047;-73
2022/10/20 04:46:45;;;;;;;24.92;13.30;;;;;;;;;;5071782;28;20044;-73
2022/10/20 04:49:49;;;;;;;22.10;13.32;;;;;;;;;;5074735;28;20047;-73
2022/10/20 04:52:54;;;;;;;26.45;14.30;;;;;;;;;;5074744;28;20051;-73
2022/10/20 04:55:58;;;;;;;20.75;13.13;;;;;;;;;;5074775;28;20043;-73
2022/10/20 04:59:03;;;;;;;23.80;13.30;;;;;;;;;;5074392;28;20043;-73
2022/10/20 05:02:07;;;;;;;23.00;14.10;;;;;;;;;;5074584;28;20043;-73
2022/10/20 05:05:11;;;;;;;23.48;13.80;;;;;;;;;;5074610;28;20048;-73
2022/10/20 05:08:15;;;;;;;23.50;14.32;;;;;;;;;;5074233;28;20499;-73
2022/10/20 05:11:20;;;;;;;22.58;14.20;;;;;;;;;;5074306;28;20047;-73
2022/10/20 05:14:25;;;;;;;30.55;14.10;;;;;;;;;;5074362;28;20044;-72
2022/10/20 05:17:29;;;;;;;24.33;15.18;;;;;;;;;;5074396;28;20047;-73
2022/10/20 05:20:34;;;;;;;38.72;18.10;;;;;;;;;;5073956;28;20048;-73
2022/10/20 05:23:39;;;;;;;36.40;16.58;;;;;;;;;;5072155;28;20502;-65
2022/10/20 05:26:43;;;;;;;30.05;15.35;;;;;;;;;;5072804;28;20045;-64
2022/10/20 05:29:48;;;;;;;23.73;14.13;;;;;;;;;;5073108;28;20056;-64
2022/10/20 05:32:52;;;;;;;43.80;15.27;;;;;;;;;;5073546;28;20399;-65
2022/10/20 05:35:56;;;;;;;26.88;16.75;;;;;;;;;;5074054;28;20051;-65
2022/10/20 05:39:01;;;;;;;27.50;13.85;;;;;;;;;;5073622;28;20063;-64
2022/10/20 05:42:05;;;;;;;26.25;14.85;;;;;;;;;;5073511;28;20047;-66
2022/10/20 05:45:10;;;;;;;35.13;14.50;;;;;;;;;;5073579;28;20059;-66
2022/10/20 05:48:14;;;;;;;32.03;13.77;;;;;;;;;;5073418;28;20064;-66
2022/10/20 05:51:20;;;;;;;29.45;15.27;;;;;;;;;;5073443;28;20048;-66
2022/10/20 05:54:25;;;;;;;23.17;15.00;;;;;;;;;;5073645;28;20036;-67
2022/10/20 05:57:29;;;;;;;32.80;14.85;;;;;;;;;;5073381;28;20408;-66
2022/10/20 06:00:40;;;;;;;32.85;13.38;;;;;;;;;;5073607;28;20047;-67
2022/10/20 06:04:02;;;;;;;19.27;13.43;;;;;;;;;;5073221;28;20515;-66
2022/10/20 06:07:08;;;;;;;32.92;13.98;;;;;;;;;;5072922;28;20047;-67
2022/10/20 06:10:13;;;;;;;27.13;13.00;;;;;;;;;;5072924;28;20047;-67
2022/10/20 06:13:17;;;;;;;25.55;14.00;;;;;;;;;;5072958;28;20044;-66
2022/10/20 06:16:23;;;;;;;25.23;12.52;;;;;;;;;;5072732;28;20051;-67
2022/10/20 06:19:27;;;;;;;26.60;14.43;;;;;;;;;;5072801;28;20525;-66
2022/10/20 06:22:32;;;;;;;27.17;14.18;;;;;;;;;;5072918;28;20495;-66
2022/10/20 06:25:37;;;;;;;32.50;13.43;;;;;;;;;;5072736;28;20051;-65
2022/10/20 06:28:41;;;;;;;28.13;12.75;;;;;;;;;;5072509;28;20063;-66
2022/10/20 06:31:46;;;;;;;32.63;12.90;;;;;;;;;;5072214;28;20400;-67
2022/10/20 06:34:52;;;;;;;28.73;11.98;;;;;;;;;;5072548;28;20453;-65
2022/10/20 06:37:57;;;;;;;22.35;13.65;;;;;;;;;;5072607;28;20384;-65
2022/10/20 06:41:02;;;;;;;22.95;12.90;;;;;;;;;;5072459;28;20044;-65
2022/10/20 06:44:06;;;;;;;21.67;13.90;;;;;;;;;;5072589;28;20059;-65
2022/10/20 06:47:11;;;;;;;22.00;11.73;;;;;;;;;;5072628;28;20056;-65
2022/10/20 06:50:15;;;;;;;24.70;14.18;;;;;;;;;;5072869;28;20055;-65
2022/10/20 06:53:19;;;;;;;21.73;12.30;;;;;;;;;;5072153;28;20039;-65
2022/10/20 06:56:24;;;;;;;24.80;12.88;;;;;;;;;;5072514;28;20403;-67
2022/10/20 06:59:29;;;;;;;26.85;14.52;;;;;;;;;;5072318;28;20067;-67
2022/10/20 07:02:33;;;;;;;24.98;12.02;;;;;;;;;;5072163;28;20518;-67
2022/10/20 07:05:38;;;;;;;24.38;13.50;;;;;;;;;;5072205;28;20048;-67
2022/10/20 07:08:42;;;;;;;30.80;14.48;;;;;;;;;;5071656;28;20059;-69
2022/10/20 07:11:50;;;;;;;25.73;12.73;;;;;;;;;;5072007;28;20040;-65
2022/10/20 07:14:54;;;;;;;24.77;13.10;;;;;;;;;;5071749;28;20399;-66
2022/10/20 07:17:58;;;;;;;26.85;14.40;;;;;;;;;;5070621;28;20051;-66
2022/10/20 07:21:04;;;;;;;29.33;15.88;;;;;;;;;;5071694;28;20103;-66
2022/10/20 07:24:09;;;;;;;21.25;13.70;;;;;;;;;;5071498;28;20392;-66
2022/10/20 07:27:13;;;;;;;21.42;12.88;;;;;;;;;;5071479;28;20052;-66
2022/10/20 07:30:18;;;;;;;26.92;13.15;;;;;;;;;;5071248;28;20059;-66
2022/10/20 07:33:22;;;;;;;20.75;12.25;;;;;;;;;;5071157;28;20035;-66
2022/10/20 07:36:28;;;;;;;22.00;12.95;;;;;;;;;;5071240;28;20043;-66
2022/10/20 07:39:32;;;;;;;24.10;11.57;;;;;;;;;;5071591;28;20051;-66
2022/10/20 07:42:36;;;;;;;22.60;11.80;;;;;;;;;;5071377;28;20043;-66
2022/10/20 07:45:41;;;;;;;16.88;10.07;;;;;;;;;;5071710;28;20068;-66
2022/10/20 07:48:45;;;;;;;22.77;10.95;;;;;;;;;;5071192;28;20051;-66
2022/10/20 07:51:49;;;;;;;13.93;9.75;;;;;;;;;;5071178;28;20043;-67
2022/10/20 07:54:54;;;;;;;22.85;10.40;;;;;;;;;;5071570;28;20047;-70
2022/10/20 07:57:58;;;;;;;19.20;10.20;;;;;;;;;;5071602;28;20499;-70
2022/10/20 08:01:03;;;;;;;16.58;9.73;;;;;;;;;;5071401;28;20051;-69
2022/10/20 08:04:07;;;;;;;15.93;9.80;;;;;;;;;;5070477;28;20404;-68
2022/10/20 08:07:12;;;;;;;13.20;9.20;;;;;;;;;;5070889;28;20048;-68
2022/10/20 08:10:16;;;;;;;12.88;9.27;;;;;;;;;;5069830;28;20538;-69
2022/10/20 08:13:20;;;;;;;18.30;10.82;;;;;;;;;;5070854;28;20041;-69
2022/10/20 08:16:25;;;;;;;18.10;10.15;;;;;;;;;;5070895;28;20051;-69
2022/10/20 08:19:29;;;;;;;21.90;11.48;;;;;;;;;;5070944;28;20059;-69
2022/10/20 08:22:34;;;;;;;20.65;11.70;;;;;;;;;;5071209;28;20063;-68
2022/10/20 08:25:39;;;;;;;21.60;11.80;;;;;;;;;;5070213;28;20047;-66
2022/10/20 08:28:43;;;;;;;23.90;13.40;;;;;;;;;;5070818;28;20051;-66
2022/10/20 08:31:47;;;;;;;22.45;13.18;;;;;;;;;;5070539;28;20047;-66
2022/10/20 08:34:52;;;;;;;21.15;12.88;;;;;;;;;;5071115;28;20063;-69
2022/10/20 08:37:56;;;;;;;21.10;12.10;;;;;;;;;;5070740;28;20218;-66
2022/10/20 08:41:01;;;;;;;19.80;11.70;;;;;;;;;;5070951;28;20044;-66
2022/10/20 08:44:06;;;;;;;15.88;10.50;;;;;;;;;;5071031;28;20052;-66
2022/10/20 08:47:33;;;;;;;19.48;10.23;;;;;;;;;;5070726;28;20404;-66
2022/10/20 08:50:40;;;;;;;14.40;8.45;;;;;;;;;;5070530;28;20047;-69
2022/10/20 08:53:44;;;;;;;16.02;9.65;;;;;;;;;;5070647;28;20052;-69
2022/10/20 08:56:49;;;;;;;13.57;8.15;;;;;;;;;;5070481;28;20038;-69
2022/10/20 08:59:54;;;;;;;14.73;7.90;;;;;;;;;;5070664;28;20033;-69
2022/10/20 09:03:17;;;;;;;10.40;7.28;;;;;;;;;;5070923;28;20041;-69
2022/10/20 09:06:21;;;;;;;15.35;7.85;;;;;;;;;;5071093;28;20045;-69
2022/10/20 09:09:29;;;;;;;19.35;7.43;;;;;;;;;;5070781;28;20040;-68
2022/10/20 09:12:35;;;;;;;13.13;6.72;;;;;;;;;;5069613;28;20037;-68
2022/10/20 09:15:39;;;;;;;9.55;5.32;;;;;;;;;;5070633;28;20052;-67
2022/10/20 09:18:43;;;;;;;9.52;5.03;;;;;;;;;;5070621;28;20040;-64
2022/10/20 09:21:51;;;;;;;9.85;4.90;;;;;;;;;;5069268;28;20036;-65
2022/10/20 09:24:57;;;;;;;8.40;4.95;;;;;;;;;;5070204;28;20373;-64
2022/10/20 09:28:01;;;;;;;9.77;5.05;;;;;;;;;;5070404;28;20044;-65
2022/10/20 09:31:19;;;;;;;7.95;4.40;;;;;;;;;;5069993;28;20045;-65
2022/10/20 09:34:34;;;;;;;8.57;4.10;;;;;;;;;;5073913;28;20366;-67
2022/10/20 09:37:39;;;;;;;10.43;4.30;;;;;;;;;;5073987;28;20032;-68
2022/10/20 09:40:45;;;;;;;4.82;3.80;;;;;;;;;;5073858;28;20052;-68
2022/10/20 09:44:04;;;;;;;14.57;3.65;;;;;;;;;;5073797;28;20045;-68
2022/10/20 09:47:11;;;;;;;9.73;3.53;;;;;;;;;;5073609;28;20099;-68
2022/10/20 09:50:22;;;;;;;5.05;3.80;;;;;;;;;;5073457;28;20037;-67
2022/10/20 09:53:28;;;;;;;5.13;3.20;;;;;;;;;;5073584;28;20032;-64
2022/10/20 09:56:36;;;;;;;7.78;3.50;;;;;;;;;;5073305;28;20053;-65
2022/10/20 09:59:43;;;;;;;7.43;3.03;;;;;;;;;;5072892;28;20484;-67
2022/10/20 10:02:48;;;;;;;4.35;3.15;;;;;;;;;;5073004;28;20369;-67
2022/10/20 10:05:56;;;;;;;5.43;3.50;;;;;;;;;;5073044;28;20036;-66
2022/10/20 10:09:01;;;;;;;5.10;3.25;;;;;;;;;;5073059;28;20052;-65
2022/10/20 10:12:12;;;;;;;4.80;3.00;;;;;;;;;;5073031;28;20037;-67
2022/10/20 10:15:22;;;;;;;7.22;3.40;;;;;;;;;;5072998;28;20377;-68
2022/10/20 10:18:27;;;;;;;4.55;3.30;;;;;;;;;;5073314;28;20381;-66
2022/10/20 10:21:45;;;;;;;8.80;3.80;;;;;;;;;;5072773;28;20045;-67
2022/10/20 10:24:50;;;;;;;4.05;2.92;;;;;;;;;;5072206;28;20116;-65
2022/10/20 10:28:07;;;;;;;5.40;3.03;;;;;;;;;;5072863;28;20040;-68
2022/10/20 10:31:19;;;;;;;8.35;3.03;;;;;;;;;;5071931;28;20052;-67
2022/10/20 10:34:44;;;;;;;4.63;3.20;;;;;;;;;;5072785;28;20045;-67
2022/10/20 10:38:09;;;;;;;7.60;3.08;;;;;;;;;;5072848;28;20029;-67
2022/10/20 10:41:21;;;;;;;5.35;2.58;;;;;;;;;;5072326;28;20511;-67
2022/10/20 10:44:34;;;;;;;2.87;2.40;;;;;;;;;;5071474;28;20024;-67
2022/10/20 10:47:57;;;;;;;5.43;2.90;;;;;;;;;;5072204;28;20041;-67
2022/10/20 10:51:04;;;;;;;7.50;3.20;;;;;;;;;;5072337;28;20188;-66
2022/10/20 10:54:11;;;;;;;5.47;2.72;;;;;;;;;;5072588;28;20040;-67
2022/10/20 10:57:25;;;;;;;5.45;2.67;;;;;;;;;;5072440;28;20073;-66
2022/10/20 11:00:48;;;;;;;4.40;3.00;;;;;;;;;;5072015;28;20036;-68
2022/10/20 11:04:10;;;;;;;9.48;3.25;;;;;;;;;;5072032;28;20040;-68
2022/10/20 11:07:21;;;;;;;3.92;2.40;;;;;;;;;;5071878;28;20036;-68
2022/10/20 11:10:44;;;;;;;4.47;2.70;;;;;;;;;;5071786;28;20032;-68
2022/10/20 11:13:51;;;;;;;3.67;2.67;;;;;;;;;;5072109;28;20048;-68
2022/10/20 11:16:58;;;;;;;7.82;3.40;;;;;;;;;;5071470;28;20033;-68
2022/10/20 11:20:10;;;;;;;4.82;3.50;;;;;;;;;;5072162;28;20480;-68
2022/10/20 11:23:20;;;;;;;6.70;3.90;;;;;;;;;;5071934;28;20044;-68
2022/10/20 11:26:27;;;;;;;6.73;3.90;;;;;;;;;;5071623;28;20041;-68
2022/10/20 11:29:38;;;;;;;6.68;3.83;;;;;;;;;;5071354;28;20377;-67
2022/10/20 11:32:46;;;;;;;11.80;3.55;;;;;;;;;;5071881;28;20044;-70
2022/10/20 11:36:02;;;;;;;5.38;4.00;;;;;;;;;;5071572;28;20032;-68
2022/10/20 11:39:11;;;;;;;4.47;3.53;;;;;;;;;;5070976;28;20036;-67
2022/10/20 11:42:15;;;;;;;5.90;3.20;;;;;;;;;;5071107;28;20041;-67
2022/10/20 11:45:38;;;;;;;5.32;2.80;;;;;;;;;;5069388;28;20036;-67
2022/10/20 11:48:46;;;;;;;4.57;3.30;;;;;;;;;;5068950;28;20378;-67
2022/10/20 11:51:53;;;;;;;3.63;3.05;;;;;;;;;;5069116;28;20480;-67
2022/10/20 11:54:57;;;;;;;5.53;3.15;;;;;;;;;;5069975;28;20044;-67
2022/10/20 11:58:20;;;;;;;6.10;3.33;;;;;;;;;;5070352;28;20476;-68
2022/10/20 12:01:35;;;;;;;6.78;2.95;;;;;;;;;;5071085;28;20048;-67
2022/10/20 12:04:43;;;;;;;4.97;3.05;;;;;;;;;;5071275;28;20036;-67
2022/10/20 12:08:06;;;;;;;6.38;3.10;;;;;;;;;;5071187;28;20373;-67
2022/10/20 12:11:31;;;;;;;6.75;2.95;;;;;;;;;;5070918;28;20387;-67
2022/10/20 12:14:42;;;;;;;4.43;2.80;;;;;;;;;;5070013;28;20037;-67
2022/10/20 12:17:47;;;;;;;6.38;3.55;;;;;;;;;;5071003;28;20040;-67
2022/10/20 12:20:54;;;;;;;5.10;3.17;;;;;;;;;;5070708;28;20373;-67
2022/10/20 12:24:02;;;;;;;5.18;3.15;;;;;;;;;;5071212;28;20397;-67
2022/10/20 12:27:06;;;;;;;4.93;3.00;;;;;;;;;;5070173;28;20041;-65
2022/10/20 12:30:29;;;;;;;6.18;3.40;;;;;;;;;;5070086;28;20056;-65
2022/10/20 12:33:58;;;;;;;6.47;3.05;;;;;;;;;;5070540;28;20037;-66
2022/10/20 12:37:16;;;;;;;4.03;2.90;;;;;;;;;;5071093;28;20040;-66
2022/10/20 12:40:25;;;;;;;5.72;2.83;;;;;;;;;;5070997;28;20040;-65
2022/10/20 12:43:32;;;;;;;6.88;3.15;;;;;;;;;;5070400;28;20037;-65
2022/10/20 12:46:40;;;;;;;4.07;2.88;;;;;;;;;;5070567;28;20040;-66
2022/10/20 12:49:56;;;;;;;5.43;3.10;;;;;;;;;;5070612;28;20044;-65
2022/10/20 12:53:09;;;;;;;6.13;2.95;;;;;;;;;;5070691;28;20033;-66
2022/10/20 12:56:19;;;;;;;6.03;3.03;;;;;;;;;;5070070;28;20028;-66
2022/10/20 12:59:23;;;;;;;4.88;2.90;;;;;;;;;;5070359;28;20036;-66
2022/10/20 13:02:50;;;;;;;4.35;2.83;;;;;;;;;;5070437;28;20029;-66
2022/10/20 13:05:54;;;;;;;6.00;2.80;;;;;;;;;;5070472;28;20037;-66
2022/10/20 13:09:05;;;;;;;5.45;2.88;;;;;;;;;;5073355;28;20442;-71
2022/10/20 13:12:24;;;;;;;7.18;3.63;;;;;;;;;;5073532;28;20037;-69
2022/10/20 13:15:28;;;;;;;4.82;3.10;;;;;;;;;;5074085;28;20044;-69
2022/10/20 13:18:37;;;;;;;6.32;2.88;;;;;;;;;;5074366;28;20037;-68
2022/10/20 13:21:41;;;;;;;6.05;3.13;;;;;;;;;;5073618;28;20040;-65
2022/10/20 13:24:45;;;;;;;9.02;3.63;;;;;;;;;;5072274;28;20379;-65
2022/10/20 13:27:49;;;;;;;5.80;2.83;;;;;;;;;;5072631;28;20045;-65
2022/10/20 13:31:00;;;;;;;3.72;2.80;;;;;;;;;;5073275;28;20512;-65
2022/10/20 13:34:09;;;;;;;4.15;2.90;;;;;;;;;;5073222;28;20041;-65
2022/10/20 13:37:26;;;;;;;7.53;2.72;;;;;;;;;;5073470;28;20040;-65
2022/10/20 13:40:49;;;;;;;5.05;3.00;;;;;;;;;;5072333;28;20370;-65
2022/10/20 13:44:03;;;;;;;4.32;3.13;;;;;;;;;;5073901;28;20032;-65
2022/10/20 13:47:07;;;;;;;7.57;2.97;;;;;;;;;;5073718;28;20032;-65
2022/10/20 13:50:30;;;;;;;5.65;3.47;;;;;;;;;;5073904;28;20045;-65
2022/10/20 13:53:37;;;;;;;6.53;3.22;;;;;;;;;;5073522;28;20480;-66
2022/10/20 13:56:45;;;;;;;7.90;3.30;;;;;;;;;;5072758;28;20033;-66
2022/10/20 14:00:00;;;;;;;5.18;3.10;;;;;;;;;;5073584;28;20040;-66
2022/10/20 14:03:14;;;;;;;4.28;2.83;;;;;;;;;;5073199;28;20044;-66
2022/10/20 14:06:33;;;;;;;9.85;3.38;;;;;;;;;;5073123;28;20036;-66
2022/10/20 14:09:37;;;;;;;12.38;4.30;;;;;;;;;;5073109;28;20052;-66
2022/10/20 14:12:41;;;;;;;6.05;3.22;;;;;;;;;;5073082;28;20148;-67
2022/10/20 14:15:56;;;;;;;15.73;4.10;;;;;;;;;;5073145;28;20373;-67
2022/10/20 14:19:11;;;;;;;4.45;2.97;;;;;;;;;;5072956;28;20043;-65
2022/10/20 14:22:17;;;;;;;10.55;3.22;;;;;;;;;;5071021;28;20041;-68
2022/10/20 14:25:22;;;;;;;9.90;4.10;;;;;;;;;;5073019;28;20045;-67
2022/10/20 14:28:28;;;;;;;10.30;3.40;;;;;;;;;;5072617;28;20044;-67
2022/10/20 14:31:32;;;;;;;8.77;3.42;;;;;;;;;;5072517;28;20040;-67
2022/10/20 14:34:36;;;;;;;5.90;3.35;;;;;;;;;;5072542;28;20036;-68
2022/10/20 14:37:42;;;;;;;7.32;3.38;;;;;;;;;;5072558;28;20037;-68
2022/10/20 14:40:52;;;;;;;9.18;3.20;;;;;;;;;;5072605;28;20032;-67
2022/10/20 14:44:06;;;;;;;7.90;3.38;;;;;;;;;;5072742;28;20381;-68
2022/10/20 14:47:13;;;;;;;5.53;3.10;;;;;;;;;;5071429;28;20041;-68
2022/10/20 14:50:39;;;;;;;8.50;3.47;;;;;;;;;;5071477;28;20044;-68
2022/10/20 14:53:43;;;;;;;4.68;3.22;;;;;;;;;;5071641;28;20036;-68
2022/10/20 14:56:48;;;;;;;13.07;3.28;;;;;;;;;;5072273;28;20037;-68
2022/10/20 15:00:03;;;;;;;11.43;3.50;;;;;;;;;;5072176;28;20040;-67
2022/10/20 15:03:09;;;;;;;6.65;3.53;;;;;;;;;;5071820;28;20037;-69
2022/10/20 15:06:16;;;;;;;7.70;3.40;;;;;;;;;;5071717;28;20040;-66
2022/10/20 15:09:26;;;;;;;4.97;2.65;;;;;;;;;;5071617;28;20044;-73
2022/10/20 15:12:30;;;;;;;8.18;3.65;;;;;;;;;;5071514;28;20033;-66
2022/10/20 15:15:38;;;;;;;7.50;3.20;;;;;;;;;;5071785;28;20491;-67
2022/10/20 15:18:43;;;;;;;10.98;3.95;;;;;;;;;;5071517;28;20033;-67
2022/10/20 15:21:47;;;;;;;10.90;4.10;;;;;;;;;;5071380;28;20041;-69
2022/10/20 15:24:51;;;;;;;11.32;4.10;;;;;;;;;;5071954;28;20044;-66
2022/10/20 15:27:56;;;;;;;7.90;3.75;;;;;;;;;;5071048;28;20040;-66
2022/10/20 15:31:01;;;;;;;10.02;4.22;;;;;;;;;;5070707;28;20189;-67
2022/10/20 15:34:08;;;;;;;5.80;3.47;;;;;;;;;;5071547;28;20036;-68
2022/10/20 15:37:13;;;;;;;9.60;3.70;;;;;;;;;;5071696;28;20040;-68
2022/10/20 15:40:17;;;;;;;5.60;3.63;;;;;;;;;;5071372;28;20056;-67
2022/10/20 15:43:21;;;;;;;10.27;3.95;;;;;;;;;;5071246;28;20041;-68
2022/10/20 15:46:26;;;;;;;5.75;3.50;;;;;;;;;;5071396;28;20047;-68
2022/10/20 15:49:30;;;;;;;6.10;3.22;;;;;;;;;;5071296;28;20481;-67
2022/10/20 15:52:36;;;;;;;4.47;3.13;;;;;;;;;;5071043;28;20037;-64
2022/10/20 15:55:42;;;;;;;6.35;3.88;;;;;;;;;;5070746;28;20036;-67
2022/10/20 15:58:48;;;;;;;8.07;4.00;;;;;;;;;;5071109;28;20037;-69
2022/10/20 16:01:53;;;;;;;9.85;3.80;;;;;;;;;;5071495;28;20036;-67
2022/10/20 16:04:57;;;;;;;6.35;4.22;;;;;;;;;;5071205;28;20040;-66
2022/10/20 16:08:01;;;;;;;7.05;4.28;;;;;;;;;;5070248;28;20054;-65
2022/10/20 16:11:06;;;;;;;7.40;4.05;;;;;;;;;;5070996;28;20488;-73
2022/10/20 16:14:10;;;;;;;8.43;4.70;;;;;;;;;;5071425;28;20028;-73
2022/10/20 16:17:14;;;;;;;15.82;6.22;;;;;;;;;;5071088;28;20036;-73
2022/10/20 16:20:19;;;;;;;10.38;5.20;;;;;;;;;;5070958;28;20370;-72
2022/10/20 16:23:23;;;;;;;27.42;6.72;;;;;;;;;;5071337;28;20036;-73
2022/10/20 16:26:27;;;;;;;13.80;6.00;;;;;;;;;;5071316;28;20040;-71
2022/10/20 16:29:32;;;;;;;29.20;7.78;;;;;;;;;;5070485;28;20044;-64
2022/10/20 16:32:36;;;;;;;27.92;7.57;;;;;;;;;;5070600;28;20056;-66
2022/10/20 16:35:44;;;;;;;26.25;6.45;;;;;;;;;;5070614;28;20048;-67
2022/10/20 16:38:53;;;;;;;25.58;8.38;;;;;;;;;;5070738;28;20392;-64
2022/10/20 16:41:57;;;;;;;26.65;7.55;;;;;;;;;;5071528;28;20440;-67
2022/10/20 16:45:02;;;;;;;17.88;6.65;;;;;;;;;;5076891;28;20047;-69
2022/10/20 16:48:06;;;;;;;18.50;8.70;;;;;;;;;;5079142;28;20036;-68
2022/10/20 16:51:11;;;;;;;33.88;11.95;;;;;;;;;;5077850;28;20422;-68
2022/10/20 16:54:16;;;;;;;42.22;15.65;;;;;;;;;;5080674;28;20040;-65
2022/10/20 16:57:21;;;;;;;37.47;14.68;;;;;;;;;;5078106;28;20519;-66
2022/10/20 17:00:25;;;;;;;44.08;17.80;;;;;;;;;;5074118;28;20039;-67
2022/10/20 17:03:30;;;;;;;40.05;17.48;;;;;;;;;;5074747;28;20503;-67
2022/10/20 17:06:34;;;;;;;56.72;19.80;;;;;;;;;;5074152;28;20051;-68
2022/10/20 17:09:38;;;;;;;56.00;18.38;;;;;;;;;;5074373;28;20056;-66
2022/10/20 17:12:45;;;;;;;57.30;19.27;;;;;;;;;;5073144;28;20051;-71
2022/10/20 17:15:50;;;;;;;49.10;24.98;;;;;;;;;;5072469;28;20047;-71
2022/10/20 17:18:54;;;;;;;52.00;26.13;;;;;;;;;;5073468;28;20042;-72
2022/10/20 17:21:58;;;;;;;55.80;23.13;;;;;;;;;;5073283;28;20127;-71
2022/10/20 17:25:03;;;;;;;50.85;20.92;;;;;;;;;;5073312;28;20043;-73
2022/10/20 17:28:07;;;;;;;47.85;19.98;;;;;;;;;;5074067;28;20039;-72
2022/10/20 17:31:12;;;;;;;55.53;21.55;;;;;;;;;;5073700;28;20052;-72
2022/10/20 17:34:16;;;;;;;53.50;18.55;;;;;;;;;;5073958;28;20045;-71
2022/10/20 17:37:20;;;;;;;62.65;19.38;;;;;;;;;;5072859;28;20043;-71
2022/10/20 17:40:25;;;;;;;45.08;15.93;;;;;;;;;;5074157;28;20043;-71
2022/10/20 17:43:29;;;;;;;38.65;16.40;;;;;;;;;;5073848;28;20048;-70
2022/10/20 17:46:33;;;;;;;51.42;17.98;;;;;;;;;;5073542;28;20044;-72
2022/10/20 17:49:38;;;;;;;43.30;16.98;;;;;;;;;;5073573;28;20055;-72
2022/10/20 17:52:42;;;;;;;37.65;16.77;;;;;;;;;;5073644;28;20051;-72
2022/10/20 17:55:46;;;;;;;36.97;15.55;;;;;;;;;;5073230;28;20047;-72
2022/10/20 17:58:51;;;;;;;51.65;17.30;;;;;;;;;;5074064;28;20036;-73
2022/10/20 18:01:55;;;;;;;39.58;14.63;;;;;;;;;;5073433;28;20044;-72
2022/10/20 18:05:00;;;;;;;37.35;14.95;;;;;;;;;;5073292;28;20503;-72
2022/10/20 18:08:04;;;;;;;42.78;16.85;;;;;;;;;;5073501;28;20051;-72
2022/10/20 18:11:16;;;;;;;28.17;14.02;;;;;;;;;;5072152;28;20052;-72
2022/10/20 18:14:20;;;;;;;48.88;20.95;;;;;;;;;;5073265;28;20198;-70
2022/10/20 18:17:24;;;;;;;47.30;18.50;;;;;;;;;;5072916;28;20415;-71
2022/10/20 18:20:28;;;;;;;48.63;19.38;;;;;;;;;;5072368;28;20052;-71